createdAt,value
2022-12-18T00:01:55.655Z,2.76
2022-12-18T00:04:30.061Z,2.75
2022-12-18T00:07:02.948Z,2.72
2022-12-18T00:09:40.317Z,2.68
2022-12-18T00:14:48.689Z,2.65
2022-12-18T00:17:22.040Z,2.63
2022-12-18T00:19:56.418Z,2.63
2022-12-18T00:22:29.544Z,2.62
2022-12-18T00:25:02.387Z,2.61
2022-12-18T00:27:36.470Z,2.61
2022-12-18T00:30:10.418Z,2.63
2022-12-18T00:32:43.291Z,2.62
2022-12-18T00:35:17.704Z,2.66
2022-12-18T00:37:50.602Z,2.69
2022-12-18T00:40:23.514Z,2.72
2022-12-18T00:42:58.289Z,2.74
2022-12-18T00:45:33.090Z,2.77
2022-12-18T00:48:06.661Z,2.78
2022-12-18T00:50:40.853Z,2.81
2022-12-18T00:53:14.147Z,2.82
2022-12-18T00:55:48.311Z,2.83
2022-12-18T00:58:21.151Z,2.86
2022-12-18T01:00:54.117Z,2.89
2022-12-18T01:03:27.172Z,2.88
2022-12-18T01:06:01.464Z,2.92
2022-12-18T01:08:34.499Z,2.94
2022-12-18T01:11:10.426Z,2.95
2022-12-18T01:13:44.472Z,2.96
2022-12-18T01:16:18.740Z,2.97
2022-12-18T01:18:54.590Z,2.96
2022-12-18T01:21:29.008Z,2.96
2022-12-18T01:24:01.817Z,2.97
2022-12-18T01:26:34.637Z,2.97
2022-12-18T01:29:07.432Z,2.99
2022-12-18T01:31:40.441Z,3.00
2022-12-18T01:34:13.282Z,3.00
2022-12-18T01:36:47.463Z,3.02
2022-12-18T01:39:20.851Z,3.04
2022-12-18T01:42:10.383Z,3.04
2022-12-18T01:44:59.080Z,3.06
2022-12-18T01:47:37.295Z,3.06
2022-12-18T01:50:15.193Z,3.06
2022-12-18T01:52:54.079Z,3.06
2022-12-18T01:55:30.040Z,3.06
2022-12-18T01:58:03.267Z,3.05
2022-12-18T02:00:36.301Z,3.06
2022-12-18T02:03:09.189Z,3.06
2022-12-18T02:05:49.138Z,3.06
2022-12-18T02:08:28.618Z,3.07
2022-12-18T02:11:09.497Z,3.09
2022-12-18T02:13:48.684Z,3.07
2022-12-18T02:16:26.069Z,3.07
2022-12-18T02:19:02.676Z,3.05
2022-12-18T02:21:48.245Z,3.04
2022-12-18T02:24:32.800Z,3.05
2022-12-18T02:27:08.778Z,3.02
2022-12-18T02:29:46.381Z,3.01
2022-12-18T02:32:25.420Z,2.99
2022-12-18T02:34:59.440Z,2.97
2022-12-18T02:37:34.595Z,2.95
2022-12-18T02:40:09.902Z,2.95
2022-12-18T02:42:44.133Z,2.96
2022-12-18T02:45:17.162Z,2.97
2022-12-18T02:47:52.176Z,2.98
2022-12-18T02:50:33.449Z,2.98
2022-12-18T02:53:15.939Z,2.97
2022-12-18T02:55:58.282Z,3.00
2022-12-18T02:58:42.447Z,3.00
2022-12-18T03:01:21.241Z,2.98
2022-12-18T03:03:58.724Z,2.98
2022-12-18T03:06:37.102Z,2.93
2022-12-18T03:09:12.896Z,2.90
2022-12-18T03:12:08.097Z,2.89
2022-12-18T03:14:45.314Z,2.87
2022-12-18T03:17:22.761Z,2.83
2022-12-18T03:19:59.179Z,2.81
2022-12-18T03:22:35.428Z,2.82
2022-12-18T03:25:11.672Z,2.80
2022-12-18T03:27:48.538Z,2.79
2022-12-18T03:30:23.271Z,2.79
2022-12-18T03:33:03.926Z,2.79
2022-12-18T03:35:41.415Z,2.77
2022-12-18T03:38:14.968Z,2.74
2022-12-18T03:40:58.732Z,2.74
2022-12-18T03:43:42.638Z,2.74
2022-12-18T03:46:25.222Z,2.72
2022-12-18T03:49:07.911Z,2.72
2022-12-18T03:51:48.195Z,2.71
2022-12-18T03:54:21.888Z,2.68
2022-12-18T03:57:02.927Z,2.69
2022-12-18T03:59:37.440Z,2.66
2022-12-18T04:02:12.599Z,2.67
2022-12-18T04:04:49.348Z,2.63
2022-12-18T04:07:23.440Z,2.58
2022-12-18T04:10:00.121Z,2.58
2022-12-18T04:12:33.039Z,2.53
2022-12-18T04:15:06.952Z,2.53
2022-12-18T04:17:45.401Z,2.52
2022-12-18T04:20:19.171Z,2.50
2022-12-18T04:22:51.938Z,2.51
2022-12-18T04:25:24.834Z,2.49
2022-12-18T04:27:57.965Z,2.49
2022-12-18T04:30:30.768Z,2.52
2022-12-18T04:33:04.950Z,2.52
2022-12-18T04:35:37.725Z,2.53
2022-12-18T04:38:11.913Z,2.53
2022-12-18T04:40:45.365Z,2.54
2022-12-18T04:43:18.259Z,2.57
2022-12-18T04:45:51.197Z,2.58
2022-12-18T04:48:25.658Z,2.58
2022-12-18T04:50:58.470Z,2.58
2022-12-18T04:53:31.382Z,2.59
2022-12-18T04:56:06.296Z,2.62
2022-12-18T04:58:40.099Z,2.63
2022-12-18T05:01:14.640Z,2.63
2022-12-18T05:03:49.581Z,2.65
2022-12-18T05:06:22.662Z,2.65
2022-12-18T05:08:55.472Z,2.69
2022-12-18T05:11:28.454Z,2.70
2022-12-18T05:14:01.218Z,2.72
2022-12-18T05:16:34.007Z,2.72
2022-12-18T05:19:08.540Z,2.75
2022-12-18T05:21:41.309Z,2.75
2022-12-18T05:24:14.150Z,2.76
2022-12-18T05:26:47.060Z,2.76
2022-12-18T05:29:19.972Z,2.76
2022-12-18T05:31:52.898Z,2.75
2022-12-18T05:34:27.147Z,2.74
2022-12-18T05:37:00.012Z,2.71
2022-12-18T05:39:32.764Z,2.71
2022-12-18T05:42:05.691Z,2.71
2022-12-18T05:44:38.526Z,2.72
2022-12-18T05:47:11.541Z,2.72
2022-12-18T05:49:45.769Z,2.71
2022-12-18T05:52:18.611Z,2.70
2022-12-18T05:54:51.487Z,2.71
2022-12-18T05:57:24.303Z,2.70
2022-12-18T05:59:57.156Z,2.72
2022-12-18T06:02:30.044Z,2.74
2022-12-18T06:05:04.596Z,2.75
2022-12-18T06:07:37.391Z,2.75
2022-12-18T06:10:10.480Z,2.74
2022-12-18T06:12:43.314Z,2.72
2022-12-18T06:15:16.302Z,2.71
2022-12-18T06:17:49.983Z,2.70
2022-12-18T06:20:26.905Z,2.69
2022-12-18T06:23:03.305Z,2.65
2022-12-18T06:25:38.794Z,2.63
2022-12-18T06:28:11.546Z,2.61
2022-12-18T06:30:45.473Z,2.59
2022-12-18T06:33:19.040Z,2.56
2022-12-18T06:35:56.548Z,2.56
2022-12-18T06:38:33.600Z,2.53
2022-12-18T06:41:09.114Z,2.56
2022-12-18T06:43:42.568Z,2.55
2022-12-18T06:46:17.023Z,2.54
2022-12-18T06:48:51.281Z,2.53
2022-12-18T06:51:26.692Z,2.53
2022-12-18T06:53:59.644Z,2.52
2022-12-18T06:56:32.723Z,2.50
2022-12-18T06:59:05.516Z,2.50
2022-12-18T07:01:38.573Z,2.46
2022-12-18T07:04:11.519Z,2.47
2022-12-18T07:06:45.772Z,2.46
2022-12-18T07:09:18.605Z,2.46
2022-12-18T07:11:51.383Z,2.44
2022-12-18T07:14:24.253Z,2.43
2022-12-18T07:16:57.114Z,2.40
2022-12-18T07:19:30.087Z,2.41
2022-12-18T07:22:05.346Z,2.41
2022-12-18T07:24:39.384Z,2.40
2022-12-18T07:27:12.264Z,2.38
2022-12-18T07:29:45.064Z,2.37
2022-12-18T07:32:18.232Z,2.37
2022-12-18T07:34:51.225Z,2.37
2022-12-18T07:37:25.475Z,2.37
2022-12-18T07:39:58.354Z,2.38
2022-12-18T07:42:33.971Z,2.42
2022-12-18T07:45:07.794Z,2.49
2022-12-18T07:47:42.231Z,2.53
2022-12-18T07:50:15.261Z,2.59
2022-12-18T07:52:49.764Z,2.66
2022-12-18T07:55:22.543Z,2.73
2022-12-18T07:58:00.726Z,2.78
2022-12-18T08:00:33.901Z,2.87
2022-12-18T08:03:06.794Z,2.92
2022-12-18T08:05:39.786Z,2.99
2022-12-18T08:08:14.056Z,3.05
2022-12-18T08:10:48.203Z,3.07
2022-12-18T08:13:21.257Z,3.11
2022-12-18T08:16:02.401Z,3.17
2022-12-18T08:18:35.835Z,3.22
2022-12-18T08:21:12.652Z,3.24
2022-12-18T08:23:47.508Z,3.27
2022-12-18T08:26:22.091Z,3.30
2022-12-18T08:28:56.502Z,3.34
2022-12-18T08:31:31.418Z,3.35
2022-12-18T08:34:04.423Z,3.37
2022-12-18T08:36:37.456Z,3.41
2022-12-18T08:39:12.294Z,3.44
2022-12-18T08:42:09.863Z,3.46
2022-12-18T08:44:42.223Z,3.48
2022-12-18T08:47:15.110Z,3.51
2022-12-18T08:49:47.945Z,3.52
2022-12-18T08:52:20.720Z,3.55
2022-12-18T08:54:54.843Z,3.59
2022-12-18T08:57:27.660Z,3.60
2022-12-18T09:00:00.498Z,3.64
2022-12-18T09:02:33.456Z,3.65
2022-12-18T09:05:07.229Z,3.69
2022-12-18T09:07:40.044Z,3.74
2022-12-18T09:10:14.349Z,3.79
2022-12-18T09:12:47.137Z,3.83
2022-12-18T09:15:21.073Z,3.89
2022-12-18T09:17:54.941Z,3.93
2022-12-18T09:20:29.403Z,3.99
2022-12-18T09:23:02.189Z,4.04
2022-12-18T09:25:37.874Z,4.12
2022-12-18T09:28:13.878Z,4.17
2022-12-18T09:30:48.335Z,4.22
2022-12-18T09:33:21.232Z,4.30
2022-12-18T09:35:54.112Z,4.38
2022-12-18T09:38:26.983Z,4.44
2022-12-18T09:41:06.888Z,4.53
2022-12-18T09:43:45.986Z,4.60
2022-12-18T09:46:26.519Z,4.68
2022-12-18T09:49:03.403Z,4.77
2022-12-18T09:51:39.610Z,4.82
2022-12-18T09:54:16.362Z,4.88
2022-12-18T09:56:50.698Z,4.92
2022-12-18T09:59:27.526Z,4.98
2022-12-18T10:02:01.523Z,5.00
2022-12-18T10:04:35.177Z,5.00
2022-12-18T10:07:17.121Z,5.08
2022-12-18T10:09:52.911Z,5.09
2022-12-18T10:12:35.315Z,5.13
2022-12-18T10:15:13.926Z,5.15
2022-12-18T10:17:53.870Z,5.17
2022-12-18T10:20:34.236Z,5.18
2022-12-18T10:23:21.049Z,5.17
2022-12-18T10:26:01.915Z,5.17
2022-12-18T10:28:38.937Z,5.18
2022-12-18T10:31:18.125Z,5.19
2022-12-18T10:33:51.369Z,5.21
2022-12-18T10:36:25.906Z,5.24
2022-12-18T10:39:17.694Z,5.28
2022-12-18T10:41:50.811Z,5.31
2022-12-18T10:44:27.197Z,5.34
2022-12-18T10:47:11.689Z,5.39
2022-12-18T10:49:56.087Z,5.42
2022-12-18T10:52:29.653Z,5.45
2022-12-18T10:55:06.144Z,5.49
2022-12-18T10:57:41.488Z,5.52
2022-12-18T11:00:30.681Z,5.57
2022-12-18T11:03:03.700Z,5.58
2022-12-18T11:05:38.037Z,5.62
2022-12-18T11:08:23.745Z,5.69
2022-12-18T11:10:56.621Z,5.73
2022-12-18T11:13:32.053Z,5.80
2022-12-18T11:16:06.708Z,5.83
2022-12-18T11:18:40.102Z,5.89
2022-12-18T11:21:15.608Z,5.91
2022-12-18T11:23:52.779Z,5.97
2022-12-18T11:26:37.169Z,6.01
2022-12-18T11:29:12.561Z,6.03
2022-12-18T11:31:46.870Z,6.07
2022-12-18T11:34:29.487Z,6.11
2022-12-18T11:37:05.949Z,6.15
2022-12-18T11:39:41.714Z,6.19
2022-12-18T11:42:22.205Z,6.25
2022-12-18T11:44:59.452Z,6.29
2022-12-18T11:47:43.697Z,6.35
2022-12-18T11:50:20.427Z,6.39
2022-12-18T11:52:58.195Z,6.41
2022-12-18T11:55:43.567Z,6.47
2022-12-18T11:58:44.553Z,6.51
2022-12-18T12:01:41.977Z,6.56
2022-12-18T12:04:35.880Z,6.58
2022-12-18T12:07:23.377Z,6.60
2022-12-18T12:10:05.421Z,6.63
2022-12-18T12:12:52.437Z,6.65
2022-12-18T12:15:38.968Z,6.68
2022-12-18T12:18:26.901Z,6.68
2022-12-18T12:21:09.476Z,6.70
2022-12-18T12:23:48.112Z,6.72
2022-12-18T12:26:29.732Z,6.74
2022-12-18T12:29:16.618Z,6.76
2022-12-18T12:32:06.476Z,6.77
2022-12-18T12:34:46.313Z,6.79
2022-12-18T12:37:32.372Z,6.82
2022-12-18T12:40:26.830Z,6.82
2022-12-18T12:43:13.766Z,6.83
2022-12-18T12:45:51.541Z,6.84
2022-12-18T12:48:36.535Z,6.86
2022-12-18T12:51:18.307Z,6.83
2022-12-18T12:53:55.628Z,6.84
2022-12-18T12:56:42.106Z,6.83
2022-12-18T12:59:21.294Z,6.83
2022-12-18T13:02:01.758Z,6.82
2022-12-18T13:04:42.051Z,6.79
2022-12-18T13:07:18.242Z,6.77
2022-12-18T13:10:17.550Z,6.76
2022-12-18T13:12:59.261Z,6.71
2022-12-18T13:15:40.030Z,6.67
2022-12-18T13:18:19.204Z,6.62
2022-12-18T13:21:05.700Z,6.56
2022-12-18T13:23:42.981Z,6.53
2022-12-18T13:26:36.294Z,6.48
2022-12-18T13:29:09.468Z,6.41
2022-12-18T13:32:23.257Z,6.41
2022-12-18T13:35:40.378Z,6.35
2022-12-18T13:38:24.915Z,6.33
2022-12-18T13:40:59.684Z,6.32
2022-12-18T13:43:38.295Z,6.31
2022-12-18T13:46:26.437Z,6.35
2022-12-18T13:49:07.758Z,6.36
2022-12-18T13:51:43.844Z,6.35
2022-12-18T13:54:24.454Z,6.38
2022-12-18T13:56:57.397Z,6.37
2022-12-18T13:59:38.071Z,6.37
2022-12-18T14:02:16.646Z,6.37
2022-12-18T14:04:51.567Z,6.32
2022-12-18T14:07:26.262Z,6.32
2022-12-18T14:10:12.562Z,6.31
2022-12-18T14:13:00.934Z,6.28
2022-12-18T14:15:41.248Z,6.28
2022-12-18T14:18:23.930Z,6.26
2022-12-18T14:20:59.577Z,6.23
2022-12-18T14:23:35.441Z,6.19
2022-12-18T14:26:24.933Z,6.15
2022-12-18T14:28:57.778Z,6.09
2022-12-18T14:31:33.393Z,6.05
2022-12-18T14:34:06.305Z,5.98
2022-12-18T14:36:40.904Z,5.93
2022-12-18T14:39:19.688Z,5.90
2022-12-18T14:41:52.705Z,5.84
2022-12-18T14:44:28.578Z,5.80
2022-12-18T14:47:16.532Z,5.78
2022-12-18T14:49:50.060Z,5.73
2022-12-18T14:52:29.421Z,5.72
2022-12-18T14:55:02.344Z,5.63
2022-12-18T14:57:41.378Z,5.60
2022-12-18T15:00:19.569Z,5.56
2022-12-18T15:02:56.854Z,5.52
2022-12-18T15:05:31.542Z,5.48
2022-12-18T15:08:04.924Z,5.43
2022-12-18T15:10:49.895Z,5.42
2022-12-18T15:13:25.443Z,5.34
2022-12-18T15:16:00.371Z,5.29
2022-12-18T15:18:43.680Z,5.25
2022-12-18T15:21:20.207Z,5.19
2022-12-18T15:23:54.604Z,5.14
2022-12-18T15:26:27.806Z,5.09
2022-12-18T15:29:02.778Z,5.02
2022-12-18T15:31:37.349Z,4.99
2022-12-18T15:34:21.704Z,4.97
2022-12-18T15:36:54.799Z,4.90
2022-12-18T15:39:28.947Z,4.88
2022-12-18T15:42:20.962Z,4.88
2022-12-18T15:44:53.661Z,4.83
2022-12-18T15:47:29.416Z,4.83
2022-12-18T15:50:04.301Z,4.83
2022-12-18T15:52:42.332Z,4.81
2022-12-18T15:55:34.614Z,4.76
2022-12-18T15:58:10.438Z,4.72
2022-12-18T16:00:43.730Z,4.67
2022-12-18T16:03:18.457Z,4.63
2022-12-18T16:05:52.720Z,4.57
2022-12-18T16:08:25.512Z,4.52
2022-12-18T16:10:58.994Z,4.47
2022-12-18T16:13:31.923Z,4.40
2022-12-18T16:16:04.950Z,4.31
2022-12-18T16:18:37.867Z,4.28
2022-12-18T16:21:12.474Z,4.25
2022-12-18T16:23:46.843Z,4.21
2022-12-18T16:26:19.837Z,4.14
2022-12-18T16:28:54.189Z,4.10
2022-12-18T16:31:27.139Z,4.05
2022-12-18T16:34:13.038Z,4.03
2022-12-18T16:36:47.587Z,3.96
2022-12-18T16:39:20.592Z,3.93
2022-12-18T16:41:53.615Z,3.90
2022-12-18T16:44:27.239Z,3.89
2022-12-18T16:47:02.925Z,3.86
2022-12-18T16:49:36.222Z,3.83
2022-12-18T16:52:11.035Z,3.82
2022-12-18T16:54:44.232Z,3.77
2022-12-18T16:57:18.937Z,3.76
2022-12-18T16:59:51.966Z,3.71
2022-12-18T17:02:27.368Z,3.69
2022-12-18T17:05:01.339Z,3.67
2022-12-18T17:07:36.196Z,3.67
2022-12-18T17:10:12.843Z,3.64
2022-12-18T17:12:45.690Z,3.61
2022-12-18T17:15:18.896Z,3.57
2022-12-18T17:17:52.902Z,3.52
2022-12-18T17:20:26.529Z,3.49
2022-12-18T17:23:01.292Z,3.47
2022-12-18T17:25:35.673Z,3.45
2022-12-18T17:28:08.575Z,3.42
2022-12-18T17:30:44.412Z,3.42
2022-12-18T17:33:17.253Z,3.41
2022-12-18T17:35:50.358Z,3.38
2022-12-18T17:38:24.771Z,3.38
2022-12-18T17:41:02.085Z,3.39
2022-12-18T17:43:36.231Z,3.37
2022-12-18T17:46:09.203Z,3.34
2022-12-18T17:48:42.904Z,3.33
2022-12-18T17:51:17.005Z,3.33
2022-12-18T17:53:51.583Z,3.32
2022-12-18T17:56:26.082Z,3.30
2022-12-18T17:59:00.561Z,3.31
2022-12-18T18:01:42.423Z,3.32
2022-12-18T18:04:17.346Z,3.32
2022-12-18T18:06:50.423Z,3.32
2022-12-18T18:09:27.270Z,3.32
2022-12-18T18:12:17.422Z,3.32
2022-12-18T18:14:50.656Z,3.34
2022-12-18T18:17:26.114Z,3.34
2022-12-18T18:19:58.989Z,3.34
2022-12-18T18:22:32.196Z,3.35
2022-12-18T18:25:10.707Z,3.38
2022-12-18T18:27:44.109Z,3.35
2022-12-18T18:30:20.029Z,3.37
2022-12-18T18:32:53.049Z,3.36
2022-12-18T18:35:52.957Z,3.36
2022-12-18T18:38:20.389Z,3.35
2022-12-18T18:41:00.705Z,3.36
2022-12-18T18:43:33.776Z,3.32
2022-12-18T18:46:07.576Z,3.28
2022-12-18T18:48:42.373Z,3.26
2022-12-18T18:51:21.100Z,3.24
2022-12-18T18:53:55.224Z,3.22
2022-12-18T18:59:23.613Z,3.22
2022-12-18T19:02:05.403Z,3.21
2022-12-18T19:04:45.695Z,3.20
2022-12-18T19:07:29.955Z,3.21
2022-12-18T19:10:05.407Z,3.24
2022-12-18T19:12:54.011Z,3.28
2022-12-18T19:15:26.948Z,3.30
2022-12-18T19:18:00.173Z,3.32
2022-12-18T19:20:33.341Z,3.36
2022-12-18T19:23:06.203Z,3.37
2022-12-18T19:25:41.641Z,3.40
2022-12-18T19:28:22.070Z,3.45
2022-12-18T19:30:59.324Z,3.47
2022-12-18T19:33:43.155Z,3.49
2022-12-18T19:36:21.227Z,3.53
2022-12-18T19:38:56.395Z,3.53
2022-12-18T19:41:31.133Z,3.55
2022-12-18T19:44:08.703Z,3.59
2022-12-18T19:46:42.436Z,3.57
2022-12-18T19:49:18.241Z,3.57
2022-12-18T19:51:51.612Z,3.58
2022-12-18T19:54:24.472Z,3.57
2022-12-18T19:57:00.861Z,3.58
2022-12-18T19:59:35.829Z,3.59
2022-12-18T20:02:14.359Z,3.59
2022-12-18T20:04:47.616Z,3.58
2022-12-18T20:07:20.434Z,3.59
2022-12-18T20:09:59.539Z,3.59
2022-12-18T20:12:36.995Z,3.56
2022-12-18T20:15:13.164Z,3.58
2022-12-18T20:17:46.051Z,3.58
2022-12-18T20:20:19.226Z,3.58
2022-12-18T20:22:52.339Z,3.59
2022-12-18T20:25:25.305Z,3.60
2022-12-18T20:27:58.501Z,3.60
2022-12-18T20:30:43.669Z,3.63
2022-12-18T20:33:16.890Z,3.62
2022-12-18T20:35:49.812Z,3.60
2022-12-18T20:38:23.575Z,3.59
2022-12-18T20:41:08.197Z,3.62
2022-12-18T20:43:41.353Z,3.57
2022-12-18T20:46:17.634Z,3.58
2022-12-18T20:48:51.029Z,3.53
2022-12-18T20:51:24.102Z,3.53
2022-12-18T20:53:59.587Z,3.52
2022-12-18T20:56:32.400Z,3.49
2022-12-18T20:59:05.593Z,3.46
2022-12-18T21:01:41.526Z,3.42
2022-12-18T21:04:22.865Z,3.39
2022-12-18T21:07:02.446Z,3.38
2022-12-18T21:09:38.119Z,3.34
2022-12-18T21:12:34.883Z,3.34
2022-12-18T21:15:13.384Z,3.33
2022-12-18T21:17:47.684Z,3.34
2022-12-18T21:20:20.601Z,3.35
2022-12-18T21:22:54.081Z,3.36
2022-12-18T21:25:30.507Z,3.40
2022-12-18T21:28:03.407Z,3.44
2022-12-18T21:30:36.557Z,3.46
2022-12-18T21:33:10.901Z,3.49
2022-12-18T21:35:43.745Z,3.50
2022-12-18T21:38:17.032Z,3.53
2022-12-18T21:40:50.080Z,3.56
2022-12-18T21:43:40.744Z,3.56
2022-12-18T21:46:14.014Z,3.61
2022-12-18T21:48:48.378Z,3.64
2022-12-18T21:51:21.367Z,3.66
2022-12-18T21:53:54.208Z,3.66
2022-12-18T21:56:43.370Z,3.68
2022-12-18T21:59:18.397Z,3.71
2022-12-18T22:01:52.918Z,3.74
2022-12-18T22:04:27.887Z,3.77
2022-12-18T22:07:02.593Z,3.78
2022-12-18T22:09:35.624Z,3.80
2022-12-18T22:12:09.250Z,3.83
2022-12-18T22:14:42.082Z,3.86
2022-12-18T22:17:14.991Z,3.87
2022-12-18T22:19:51.174Z,3.89
2022-12-18T22:22:24.028Z,3.93
2022-12-18T22:24:56.988Z,3.96
2022-12-18T22:27:29.801Z,3.97
2022-12-18T22:30:04.845Z,4.00
2022-12-18T22:32:37.689Z,4.03
2022-12-18T22:35:15.781Z,4.06
2022-12-18T22:37:48.860Z,4.07
2022-12-18T22:40:25.395Z,4.08
2022-12-18T22:42:58.844Z,4.09
2022-12-18T22:45:31.716Z,4.11
2022-12-18T22:48:07.392Z,4.15
2022-12-18T22:50:41.995Z,4.17
2022-12-18T22:53:15.086Z,4.16
2022-12-18T22:55:48.029Z,4.17
2022-12-18T22:58:20.848Z,4.21
2022-12-18T23:00:53.742Z,4.22
2022-12-18T23:03:26.845Z,4.23
2022-12-18T23:06:05.999Z,4.25
2022-12-18T23:08:38.823Z,4.25
2022-12-18T23:11:12.664Z,4.29
2022-12-18T23:13:46.485Z,4.29
2022-12-18T23:16:21.054Z,4.32
2022-12-18T23:18:56.571Z,4.32
2022-12-18T23:21:30.897Z,4.34
2022-12-18T23:24:05.440Z,4.34
2022-12-18T23:26:38.914Z,4.35
2022-12-18T23:29:11.696Z,4.36
2022-12-18T23:31:44.808Z,4.35
2022-12-18T23:34:18.134Z,4.35
2022-12-18T23:36:56.015Z,4.35
2022-12-18T23:39:30.385Z,4.34
2022-12-18T23:42:04.707Z,4.33
2022-12-18T23:44:39.014Z,4.34
2022-12-18T23:47:12.138Z,4.35
2022-12-18T23:49:45.067Z,4.37
2022-12-18T23:52:19.261Z,4.36
2022-12-18T23:54:53.653Z,4.37
2022-12-18T23:57:26.515Z,4.40
